createdAt,value
2022-12-09T00:02:21.912Z,-3276.60
2022-12-09T00:04:49.074Z,-3276.70
2022-12-09T00:07:15.990Z,-3276.70
2022-12-09T00:09:42.991Z,-3276.70
2022-12-09T00:12:09.753Z,-3276.60
2022-12-09T00:14:36.545Z,-3276.60
2022-12-09T00:17:03.915Z,-3276.50
2022-12-09T00:19:30.922Z,-3276.50
2022-12-09T00:21:57.673Z,-3276.50
2022-12-09T00:24:24.449Z,-3276.60
2022-12-09T00:26:51.329Z,-3276.60
2022-12-09T00:29:18.056Z,-3276.70
2022-12-09T00:31:45.160Z,-3276.70
2022-12-09T00:34:13.654Z,-3276.70
2022-12-09T00:36:40.626Z,-3276.70
2022-12-09T00:39:07.364Z,-3276.70
2022-12-09T00:41:34.127Z,-3276.70
2022-12-09T00:44:00.904Z,-3276.70
2022-12-09T00:46:27.842Z,-3276.70
2022-12-09T00:48:54.845Z,-3276.60
2022-12-09T00:51:23.703Z,-3276.60
2022-12-09T00:53:54.684Z,-3276.60
2022-12-09T00:56:24.257Z,-3276.60
2022-12-09T00:58:51.022Z,-3276.50
2022-12-09T01:01:18.423Z,-3276.50
2022-12-09T01:03:45.451Z,-3276.50
2022-12-09T01:06:16.626Z,-3276.50
2022-12-09T01:08:43.717Z,-3276.60
2022-12-09T01:11:25.319Z,-3276.50
2022-12-09T01:13:53.617Z,-3276.50
2022-12-09T01:16:25.464Z,-3276.50
2022-12-09T01:18:54.104Z,-3276.50
2022-12-09T01:21:21.334Z,-3276.50
2022-12-09T01:23:48.131Z,-3276.50
2022-12-09T01:26:15.030Z,-3276.50
2022-12-09T01:28:42.505Z,-3276.50
2022-12-09T01:31:12.008Z,-3276.50
2022-12-09T01:33:40.093Z,-3276.50
2022-12-09T01:36:09.800Z,-3276.50
2022-12-09T01:38:37.036Z,-3276.50
2022-12-09T01:41:05.376Z,-3276.50
2022-12-09T01:43:32.406Z,-3276.50
2022-12-09T01:45:59.148Z,-3276.40
2022-12-09T01:48:29.848Z,-3276.40
2022-12-09T01:51:00.664Z,-3276.40
2022-12-09T01:53:38.848Z,-3276.40
2022-12-09T01:56:26.127Z,-3276.40
2022-12-09T01:58:54.985Z,-3276.30
2022-12-09T02:01:22.506Z,-3276.30
2022-12-09T02:03:50.341Z,-3276.30
2022-12-09T02:06:17.913Z,-3276.20
2022-12-09T02:08:45.875Z,-3276.30
2022-12-09T02:11:30.031Z,-3276.30
2022-12-09T02:14:14.072Z,-3276.40
2022-12-09T02:17:02.617Z,-3276.40
2022-12-09T02:19:48.821Z,-3276.50
2022-12-09T02:22:20.415Z,-3276.30
2022-12-09T02:24:57.413Z,-3276.30
2022-12-09T02:27:36.600Z,-3276.30
2022-12-09T02:30:13.208Z,-3276.20
2022-12-09T02:33:18.235Z,-3276.20
2022-12-09T02:35:45.237Z,-3276.10
2022-12-09T02:38:25.907Z,-3276.10
2022-12-09T02:41:01.613Z,-3276.10
2022-12-09T02:43:33.574Z,-3276.10
2022-12-09T02:46:01.828Z,-3276.00
2022-12-09T02:48:35.488Z,-3276.10
2022-12-09T02:51:06.235Z,-3276.10
2022-12-09T02:53:35.771Z,-3276.10
2022-12-09T02:56:05.144Z,-3276.10
2022-12-09T02:58:32.016Z,-3276.10
2022-12-09T03:00:59.202Z,-3276.20
2022-12-09T03:03:29.338Z,-3276.20
2022-12-09T03:06:09.540Z,-3276.20
2022-12-09T03:08:36.397Z,-3276.20
2022-12-09T03:11:13.747Z,-3276.20
2022-12-09T03:14:01.337Z,-3276.20
2022-12-09T03:16:31.287Z,-3276.20
2022-12-09T03:19:31.404Z,-3276.20
2022-12-09T03:22:02.225Z,-3276.30
2022-12-09T03:24:45.551Z,-3276.30
2022-12-09T03:27:17.588Z,-3276.30
2022-12-09T03:29:49.294Z,-3276.20
2022-12-09T03:32:19.557Z,-3276.20
2022-12-09T03:34:50.479Z,-3276.20
2022-12-09T03:37:20.227Z,-3276.20
2022-12-09T03:39:49.013Z,-3276.20
2022-12-09T03:42:34.012Z,-3276.20
2022-12-09T03:45:05.620Z,-3276.20
2022-12-09T03:47:33.292Z,-3276.20
2022-12-09T03:50:00.572Z,-3276.20
2022-12-09T03:52:41.494Z,-3276.20
2022-12-09T03:55:16.482Z,-3276.20
2022-12-09T03:57:46.353Z,-3276.30
2022-12-09T04:00:13.810Z,-3276.30
2022-12-09T04:02:40.935Z,-3276.30
2022-12-09T04:05:08.878Z,-3276.40
2022-12-09T04:07:36.047Z,-3276.40
2022-12-09T04:10:03.865Z,-3276.40
2022-12-09T04:12:31.505Z,-3276.40
2022-12-09T04:14:58.220Z,-3276.40
2022-12-09T04:17:25.049Z,-3276.40
2022-12-09T04:19:52.311Z,-3276.40
2022-12-09T04:22:19.098Z,-3276.40
2022-12-09T04:24:45.820Z,-3276.40
2022-12-09T04:27:12.724Z,-3276.40
2022-12-09T04:29:39.892Z,-3276.40
2022-12-09T04:32:06.969Z,-3276.30
2022-12-09T04:34:34.008Z,-3276.30
2022-12-09T04:37:00.983Z,-3276.30
2022-12-09T04:39:28.244Z,-3276.30
2022-12-09T04:41:55.161Z,-3276.30
2022-12-09T04:44:22.098Z,-3276.20
2022-12-09T04:46:49.262Z,-3276.20
2022-12-09T04:49:16.202Z,-3276.20
2022-12-09T04:51:43.098Z,-3276.20
2022-12-09T04:54:16.745Z,-3276.20
2022-12-09T04:56:43.909Z,-3276.20
2022-12-09T04:59:11.091Z,-3276.20
2022-12-09T05:01:38.035Z,-3276.20
2022-12-09T05:04:05.631Z,-3276.20
2022-12-09T05:06:32.957Z,-3276.30
2022-12-09T05:09:00.357Z,-3276.30
2022-12-09T05:11:28.290Z,-3276.30
2022-12-09T05:13:55.984Z,-3276.30
2022-12-09T05:16:23.425Z,-3276.30
2022-12-09T05:18:50.807Z,-3276.30
2022-12-09T05:21:20.131Z,-3276.30
2022-12-09T05:23:49.603Z,-3276.20
2022-12-09T05:26:21.553Z,-3276.20
2022-12-09T05:28:50.499Z,-3276.20
2022-12-09T05:31:20.397Z,-3276.20
2022-12-09T05:33:50.463Z,-3276.20
2022-12-09T05:36:20.966Z,-3276.10
2022-12-09T05:38:48.942Z,-3276.10
2022-12-09T05:41:16.576Z,-3276.00
2022-12-09T05:43:43.498Z,-3275.90
2022-12-09T05:46:10.815Z,-3275.80
2022-12-09T05:48:38.284Z,-3275.80
2022-12-09T05:51:08.686Z,-3275.70
2022-12-09T05:53:36.001Z,-3275.70
2022-12-09T05:56:03.330Z,-3275.70
2022-12-09T05:58:30.819Z,-3275.70
2022-12-09T06:01:07.044Z,-3275.70
2022-12-09T06:03:35.190Z,-3275.60
2022-12-09T06:06:14.011Z,-3275.60
2022-12-09T06:08:43.011Z,-3275.60
2022-12-09T06:11:13.673Z,-3275.60
2022-12-09T06:13:40.984Z,-3275.60
2022-12-09T06:16:08.515Z,-3275.50
2022-12-09T06:18:36.920Z,-3275.50
2022-12-09T06:21:08.115Z,-3275.40
2022-12-09T06:23:41.390Z,-3275.50
2022-12-09T06:26:30.773Z,-3275.40
2022-12-09T06:28:59.171Z,-3275.40
2022-12-09T06:31:27.451Z,-3275.30
2022-12-09T06:33:57.157Z,-3275.30
2022-12-09T06:36:28.436Z,-3275.30
2022-12-09T06:38:56.926Z,-3275.30
2022-12-09T06:41:24.616Z,-3275.30
2022-12-09T06:43:51.514Z,-3275.30
2022-12-09T06:46:23.360Z,-3275.40
2022-12-09T06:48:51.235Z,-3275.40
2022-12-09T06:51:19.071Z,-3275.40
2022-12-09T06:53:50.126Z,-3275.40
2022-12-09T06:56:17.112Z,-3275.40
2022-12-09T06:58:45.822Z,-3275.40
2022-12-09T07:01:23.814Z,-3275.50
2022-12-09T07:03:55.626Z,-3275.50
2022-12-09T07:06:29.801Z,-3275.50
2022-12-09T07:09:02.367Z,-3275.50
2022-12-09T07:11:30.215Z,-3275.50
2022-12-09T07:13:57.682Z,-3275.60
2022-12-09T07:16:25.641Z,-3275.50
2022-12-09T07:18:52.992Z,-3275.50
2022-12-09T07:21:22.092Z,-3275.60
2022-12-09T07:23:50.053Z,-3275.60
2022-12-09T07:26:17.669Z,-3275.60
2022-12-09T07:28:47.309Z,-3275.70
2022-12-09T07:31:23.420Z,-3275.70
2022-12-09T07:33:52.474Z,-3275.70
2022-12-09T07:36:21.447Z,-3275.70
2022-12-09T07:39:09.641Z,-3275.70
2022-12-09T07:41:36.809Z,-3275.70
2022-12-09T07:44:04.214Z,-3275.70
2022-12-09T07:46:31.458Z,-3275.70
2022-12-09T07:48:58.860Z,-3275.70
2022-12-09T07:51:26.670Z,-3275.70
2022-12-09T07:53:53.761Z,-3275.90
2022-12-09T07:56:21.714Z,-3275.90
2022-12-09T07:58:51.285Z,-3275.90
2022-12-09T08:01:21.052Z,-3276.00
2022-12-09T08:03:49.494Z,-3276.10
2022-12-09T08:06:19.345Z,-3276.10
2022-12-09T08:08:47.232Z,-3276.20
2022-12-09T08:11:25.814Z,-3276.20
2022-12-09T08:13:55.802Z,-3276.20
2022-12-09T08:16:23.919Z,-3276.20
2022-12-09T08:18:51.657Z,-3276.20
2022-12-09T08:21:24.909Z,-3276.20
2022-12-09T08:23:52.870Z,-3276.20
2022-12-09T08:26:22.388Z,-3276.30
2022-12-09T08:28:50.255Z,-3276.40
2022-12-09T08:31:20.670Z,-3276.40
2022-12-09T08:33:48.192Z,-3276.50
2022-12-09T08:36:17.986Z,-3276.50
2022-12-09T08:38:45.542Z,-3276.60
2022-12-09T08:41:18.341Z,-3276.60
2022-12-09T08:43:46.310Z,0.00
2022-12-09T08:46:14.004Z,0.10
2022-12-09T08:48:42.584Z,0.20
2022-12-09T08:51:11.575Z,0.20
2022-12-09T08:53:39.219Z,0.20
2022-12-09T08:56:13.850Z,0.20
2022-12-09T08:58:42.362Z,0.30
2022-12-09T09:01:21.929Z,0.40
2022-12-09T09:03:49.943Z,0.50
2022-12-09T09:06:18.163Z,0.60
2022-12-09T09:08:46.713Z,0.60
2022-12-09T09:11:19.963Z,0.70
2022-12-09T09:13:51.669Z,0.80
2022-12-09T09:16:21.780Z,0.80
2022-12-09T09:18:49.319Z,0.80
2022-12-09T09:21:19.598Z,0.90
2022-12-09T09:23:47.466Z,0.80
2022-12-09T09:26:20.058Z,0.90
2022-12-09T09:28:48.093Z,1.00
2022-12-09T09:31:17.696Z,0.90
2022-12-09T09:33:45.140Z,0.90
2022-12-09T09:36:20.224Z,0.80
2022-12-09T09:38:49.184Z,0.90
2022-12-09T09:41:38.011Z,1.00
2022-12-09T09:44:16.735Z,1.00
2022-12-09T09:46:46.891Z,1.00
2022-12-09T09:49:28.988Z,1.10
2022-12-09T09:51:56.356Z,1.00
2022-12-09T09:54:23.582Z,1.00
2022-12-09T09:57:00.800Z,0.90
2022-12-09T09:59:42.866Z,0.90
2022-12-09T10:02:31.135Z,1.00
2022-12-09T10:05:19.531Z,1.10
2022-12-09T10:07:54.634Z,1.00
2022-12-09T10:10:55.622Z,0.90
2022-12-09T10:13:47.103Z,0.80
2022-12-09T10:16:35.784Z,0.90
2022-12-09T10:19:17.970Z,0.90
2022-12-09T10:21:46.809Z,1.00
2022-12-09T10:24:20.306Z,1.00
2022-12-09T10:27:10.360Z,1.10
2022-12-09T10:29:49.951Z,1.10
2022-12-09T10:32:23.435Z,1.00
2022-12-09T10:34:50.738Z,1.00
2022-12-09T10:37:30.221Z,1.00
2022-12-09T10:40:10.675Z,1.10
2022-12-09T10:43:11.024Z,1.10
2022-12-09T10:48:53.309Z,1.30
2022-12-09T10:51:34.755Z,1.40
2022-12-09T10:54:10.584Z,1.40
2022-12-09T10:56:40.052Z,1.30
2022-12-09T10:59:11.759Z,1.30
2022-12-09T11:01:51.618Z,1.40
2022-12-09T11:04:27.688Z,1.40
2022-12-09T11:07:12.106Z,1.50
2022-12-09T11:09:42.963Z,1.50
2022-12-09T11:12:38.195Z,1.40
2022-12-09T11:15:27.237Z,1.40
2022-12-09T11:18:17.535Z,1.40
2022-12-09T11:20:58.390Z,1.40
2022-12-09T11:23:26.365Z,1.50
2022-12-09T11:25:58.841Z,1.60
2022-12-09T11:28:31.319Z,1.60
2022-12-09T11:31:28.527Z,1.70
2022-12-09T11:33:53.452Z,1.70
2022-12-09T11:36:42.150Z,1.60
2022-12-09T11:39:22.531Z,1.50
2022-12-09T11:42:16.576Z,1.60
2022-12-09T11:45:00.260Z,1.60
2022-12-09T11:47:50.767Z,1.50
2022-12-09T11:50:31.215Z,1.60
2022-12-09T11:53:07.583Z,1.80
2022-12-09T11:55:44.357Z,1.70
2022-12-09T11:58:15.971Z,1.70
2022-12-09T12:00:55.693Z,1.70
2022-12-09T12:03:34.737Z,1.80
2022-12-09T12:06:06.208Z,1.80
2022-12-09T12:08:51.456Z,1.90
2022-12-09T12:11:28.190Z,1.90
2022-12-09T12:14:04.176Z,2.00
2022-12-09T12:16:39.744Z,2.00
2022-12-09T12:19:13.624Z,2.00
2022-12-09T12:21:52.385Z,2.10
2022-12-09T12:24:32.615Z,2.00
2022-12-09T12:27:08.194Z,2.00
2022-12-09T12:29:58.874Z,2.00
2022-12-09T12:36:10.522Z,1.90
2022-12-09T12:39:03.092Z,2.00
2022-12-09T12:41:48.740Z,2.00
2022-12-09T12:44:46.484Z,1.90
2022-12-09T12:47:36.677Z,1.90
2022-12-09T12:50:18.825Z,1.90
2022-12-09T12:53:04.357Z,2.00
2022-12-09T12:55:46.572Z,2.10
2022-12-09T12:59:03.877Z,2.10
2022-12-09T13:01:30.668Z,2.20
2022-12-09T13:04:12.553Z,2.20
2022-12-09T13:06:52.219Z,2.30
2022-12-09T13:09:50.771Z,2.40
2022-12-09T13:12:44.381Z,2.40
2022-12-09T13:15:16.693Z,2.40
2022-12-09T13:17:46.837Z,2.30
2022-12-09T13:20:51.119Z,2.30
2022-12-09T13:23:36.655Z,2.30
2022-12-09T13:26:23.542Z,2.20
2022-12-09T13:29:01.532Z,2.00
2022-12-09T13:31:31.317Z,2.00
2022-12-09T13:34:26.417Z,1.90
2022-12-09T13:36:53.569Z,1.90
2022-12-09T13:39:39.487Z,2.00
2022-12-09T13:42:47.435Z,2.00
2022-12-09T13:45:28.495Z,2.00
2022-12-09T13:47:57.024Z,2.10
2022-12-09T13:50:28.280Z,2.10
2022-12-09T13:53:21.455Z,2.10
2022-12-09T13:55:51.147Z,2.20
2022-12-09T13:58:46.381Z,2.20
2022-12-09T14:01:13.305Z,2.20
2022-12-09T14:04:06.848Z,2.20
2022-12-09T14:06:46.030Z,2.20
2022-12-09T14:09:44.922Z,2.00
2022-12-09T14:12:14.075Z,1.90
2022-12-09T14:14:48.470Z,1.80
2022-12-09T14:17:30.329Z,1.80
2022-12-09T14:19:57.023Z,1.70
2022-12-09T14:22:23.862Z,1.70
2022-12-09T14:24:53.420Z,1.70
2022-12-09T14:27:23.325Z,1.60
2022-12-09T14:29:59.230Z,1.60
2022-12-09T14:32:54.355Z,1.60
2022-12-09T14:35:38.592Z,1.70
2022-12-09T14:38:30.883Z,1.70
2022-12-09T14:41:13.015Z,1.70
2022-12-09T14:44:03.427Z,1.70
2022-12-09T14:46:40.144Z,1.70
2022-12-09T14:49:27.276Z,1.60
2022-12-09T14:52:09.080Z,1.60
2022-12-09T14:54:38.574Z,1.60
2022-12-09T14:57:15.972Z,1.50
2022-12-09T14:59:50.479Z,1.50
2022-12-09T15:02:21.348Z,1.40
2022-12-09T15:04:50.364Z,1.40
2022-12-09T15:07:25.620Z,1.40
2022-12-09T15:09:55.686Z,1.40
2022-12-09T15:12:29.204Z,1.40
2022-12-09T15:15:12.015Z,1.40
2022-12-09T15:17:44.054Z,1.40
2022-12-09T15:20:36.876Z,1.40
2022-12-09T15:23:05.943Z,1.40
2022-12-09T15:25:37.280Z,1.40
2022-12-09T15:28:12.525Z,1.40
2022-12-09T15:30:39.830Z,1.30
2022-12-09T15:33:15.701Z,1.30
2022-12-09T15:35:48.638Z,1.30
2022-12-09T15:38:15.630Z,1.30
2022-12-09T15:41:03.393Z,1.30
2022-12-09T15:43:31.806Z,1.20
2022-12-09T15:45:58.763Z,1.20
2022-12-09T15:48:31.516Z,1.20
2022-12-09T15:51:04.595Z,1.20
2022-12-09T15:53:53.565Z,1.20
2022-12-09T15:56:31.081Z,1.10
2022-12-09T15:59:03.937Z,1.10
2022-12-09T16:01:33.933Z,1.10
2022-12-09T16:04:02.772Z,1.10
2022-12-09T16:06:34.104Z,1.10
2022-12-09T16:09:02.051Z,1.10
2022-12-09T16:11:44.117Z,1.00
2022-12-09T16:14:11.676Z,1.00
2022-12-09T16:16:58.167Z,0.90
2022-12-09T16:19:30.847Z,0.90
2022-12-09T16:22:22.724Z,0.90
2022-12-09T16:25:14.145Z,0.80
2022-12-09T16:27:48.489Z,0.80
2022-12-09T16:30:20.785Z,0.80
2022-12-09T16:32:55.437Z,0.80
2022-12-09T16:35:40.861Z,0.80
2022-12-09T16:38:10.820Z,0.80
2022-12-09T16:40:43.712Z,0.80
2022-12-09T16:43:30.425Z,0.80
2022-12-09T16:46:21.499Z,0.80
2022-12-09T16:48:49.573Z,0.80
2022-12-09T16:51:19.620Z,0.80
2022-12-09T16:53:49.279Z,0.80
2022-12-09T16:56:22.490Z,0.80
2022-12-09T16:58:49.480Z,0.80
2022-12-09T17:01:18.646Z,0.80
2022-12-09T17:03:57.893Z,0.80
2022-12-09T17:06:24.780Z,0.80
2022-12-09T17:08:51.698Z,0.80
2022-12-09T17:11:21.393Z,0.80
2022-12-09T17:13:49.639Z,0.70
2022-12-09T17:16:17.023Z,0.70
2022-12-09T17:18:43.815Z,0.70
2022-12-09T17:21:13.579Z,0.70
2022-12-09T17:23:41.470Z,0.70
2022-12-09T17:26:11.693Z,0.60
2022-12-09T17:28:40.547Z,0.70
2022-12-09T17:31:10.170Z,0.70
2022-12-09T17:33:38.481Z,0.60
2022-12-09T17:36:07.293Z,0.70
2022-12-09T17:38:34.678Z,0.70
2022-12-09T17:41:09.897Z,0.70
2022-12-09T17:43:37.213Z,0.70
2022-12-09T17:46:05.763Z,0.60
2022-12-09T17:48:37.053Z,0.60
2022-12-09T17:51:08.698Z,0.60
2022-12-09T17:53:42.709Z,0.60
2022-12-09T17:56:14.773Z,0.60
2022-12-09T17:58:44.406Z,0.60
2022-12-09T18:01:20.521Z,0.50
2022-12-09T18:03:59.219Z,0.60
2022-12-09T18:06:34.512Z,0.60
2022-12-09T18:09:04.145Z,0.60
2022-12-09T18:11:31.797Z,0.50
2022-12-09T18:13:58.890Z,0.50
2022-12-09T18:16:26.105Z,0.50
2022-12-09T18:19:19.589Z,0.50
2022-12-09T18:21:47.160Z,0.50
2022-12-09T18:24:16.467Z,0.50
2022-12-09T18:26:43.438Z,0.60
2022-12-09T18:29:16.592Z,0.50
2022-12-09T18:31:45.672Z,0.50
2022-12-09T18:34:13.058Z,0.50
2022-12-09T18:36:44.050Z,0.40
2022-12-09T18:39:11.094Z,0.50
2022-12-09T18:41:38.986Z,0.50
2022-12-09T18:44:08.691Z,0.50
2022-12-09T18:46:42.677Z,0.60
2022-12-09T18:49:17.133Z,0.50
2022-12-09T18:51:45.759Z,0.50
2022-12-09T18:54:21.618Z,0.60
2022-12-09T18:56:51.827Z,0.50
2022-12-09T18:59:24.937Z,0.50
2022-12-09T19:01:53.679Z,0.50
2022-12-09T19:04:24.099Z,0.50
2022-12-09T19:06:53.219Z,0.60
2022-12-09T19:09:26.907Z,0.50
2022-12-09T19:11:53.882Z,0.60
2022-12-09T19:14:22.688Z,0.50
2022-12-09T19:16:50.849Z,0.60
2022-12-09T19:19:24.769Z,0.60
2022-12-09T19:21:53.445Z,0.60
2022-12-09T19:24:24.935Z,0.60
2022-12-09T19:26:55.002Z,0.60
2022-12-09T19:29:24.641Z,0.60
2022-12-09T19:31:54.509Z,0.60
2022-12-09T19:34:25.172Z,0.60
2022-12-09T19:36:55.262Z,0.60
2022-12-09T19:39:24.782Z,0.70
2022-12-09T19:41:51.826Z,0.70
2022-12-09T19:44:37.155Z,0.60
2022-12-09T19:47:06.694Z,0.60
2022-12-09T19:49:33.466Z,0.60
2022-12-09T19:52:00.244Z,0.60
2022-12-09T19:54:29.531Z,0.60
2022-12-09T19:56:57.372Z,0.70
2022-12-09T19:59:24.149Z,0.70
2022-12-09T20:01:51.440Z,0.70
2022-12-09T20:07:08.629Z,0.80
2022-12-09T20:09:36.783Z,0.70
2022-12-09T20:12:03.654Z,0.70
2022-12-09T20:14:30.385Z,0.70
2022-12-09T20:16:57.060Z,0.80
2022-12-09T20:19:24.627Z,0.70
2022-12-09T20:21:51.319Z,0.70
2022-12-09T20:24:18.120Z,0.70
2022-12-09T20:26:45.041Z,0.60
2022-12-09T20:29:12.070Z,0.70
2022-12-09T20:31:39.826Z,0.70
2022-12-09T20:34:11.568Z,0.70
2022-12-09T20:36:40.916Z,0.70
2022-12-09T20:39:12.452Z,0.70
2022-12-09T20:41:40.008Z,0.70
2022-12-09T20:44:06.695Z,0.70
2022-12-09T20:46:33.676Z,0.80
2022-12-09T20:49:00.875Z,0.80
2022-12-09T20:51:34.137Z,0.80
2022-12-09T20:54:01.725Z,0.80
2022-12-09T20:56:30.016Z,0.80
2022-12-09T20:58:57.514Z,0.80
2022-12-09T21:01:27.896Z,0.80
2022-12-09T21:03:55.680Z,0.80
2022-12-09T21:06:25.945Z,0.80
2022-12-09T21:08:53.789Z,0.80
2022-12-09T21:11:23.700Z,0.80
2022-12-09T21:13:53.921Z,0.80
2022-12-09T21:16:26.556Z,0.80
2022-12-09T21:18:55.325Z,0.80
2022-12-09T21:21:23.803Z,0.80
2022-12-09T21:23:54.061Z,0.80
2022-12-09T21:26:22.568Z,0.80
2022-12-09T21:28:49.949Z,0.80
2022-12-09T21:31:22.728Z,0.80
2022-12-09T21:33:51.324Z,0.80
2022-12-09T21:36:21.011Z,0.80
2022-12-09T21:38:47.843Z,0.80
2022-12-09T21:41:17.223Z,0.80
2022-12-09T21:43:44.890Z,0.80
2022-12-09T21:46:14.594Z,0.80
2022-12-09T21:48:41.740Z,0.80
2022-12-09T21:51:10.627Z,0.80
2022-12-09T21:53:37.965Z,0.80
2022-12-09T21:56:14.061Z,0.80
2022-12-09T21:58:40.779Z,0.80
2022-12-09T22:01:10.073Z,0.80
2022-12-09T22:03:37.319Z,0.90
2022-12-09T22:06:04.622Z,0.90
2022-12-09T22:08:31.339Z,0.90
2022-12-09T22:10:58.421Z,0.90
2022-12-09T22:13:26.407Z,0.90
2022-12-09T22:15:53.817Z,0.80
2022-12-09T22:18:21.023Z,0.80
2022-12-09T22:21:23.779Z,0.80
2022-12-09T22:23:34.698Z,0.90
2022-12-09T22:26:08.758Z,0.90
2022-12-09T22:28:36.693Z,0.80
2022-12-09T22:31:13.119Z,0.80
2022-12-09T22:33:40.215Z,0.80
2022-12-09T22:36:09.358Z,0.80
2022-12-09T22:38:37.419Z,0.80
2022-12-09T22:41:10.681Z,0.80
2022-12-09T22:43:38.323Z,0.80
2022-12-09T22:46:07.357Z,0.80
2022-12-09T22:48:35.393Z,0.80
2022-12-09T22:51:11.593Z,0.80
2022-12-09T22:53:38.792Z,0.80
2022-12-09T22:56:06.301Z,0.70
2022-12-09T22:58:34.352Z,0.80
2022-12-09T23:01:01.395Z,0.80
2022-12-09T23:03:28.434Z,0.80
2022-12-09T23:05:55.286Z,0.80
2022-12-09T23:08:22.445Z,0.80
2022-12-09T23:10:49.264Z,0.70
2022-12-09T23:13:16.065Z,0.70
2022-12-09T23:15:42.807Z,0.80
2022-12-09T23:18:09.681Z,0.70
2022-12-09T23:20:36.488Z,0.80
2022-12-09T23:23:03.224Z,0.80
2022-12-09T23:25:29.941Z,0.80
2022-12-09T23:27:56.673Z,0.80
2022-12-09T23:30:23.373Z,0.80
2022-12-09T23:32:50.109Z,0.80
2022-12-09T23:35:17.083Z,0.70
2022-12-09T23:37:43.780Z,0.70
2022-12-09T23:40:11.118Z,0.70
2022-12-09T23:42:37.976Z,0.60
2022-12-09T23:45:05.461Z,0.60
2022-12-09T23:47:32.309Z,0.60
2022-12-09T23:49:59.055Z,0.60
2022-12-09T23:52:25.793Z,0.60
2022-12-09T23:54:52.521Z,0.60
2022-12-09T23:57:19.256Z,0.60
2022-12-09T23:59:46.249Z,0.60
